createdAt,value
2023-02-13T00:00:53.906Z,101571.42
2023-02-13T00:01:58.505Z,101561.86
2023-02-13T00:03:00.699Z,101564.47
2023-02-13T00:04:05.362Z,101562.72
2023-02-13T00:05:08.469Z,101567.92
2023-02-13T00:06:11.341Z,101569.67
2023-02-13T00:07:14.449Z,101566.20
2023-02-13T00:08:18.874Z,101562.71
2023-02-13T00:09:30.404Z,101567.95
2023-02-13T00:10:33.631Z,101567.88
2023-02-13T00:11:37.929Z,101565.30
2023-02-13T00:12:43.222Z,101568.81
2023-02-13T00:13:47.797Z,101569.66
2023-02-13T00:14:52.150Z,101564.45
2023-02-13T00:15:57.301Z,101567.94
2023-02-13T00:17:00.896Z,101570.52
2023-02-13T00:18:04.440Z,101564.41
2023-02-13T00:19:08.007Z,101554.84
2023-02-13T00:20:13.382Z,101555.72
2023-02-13T00:21:15.976Z,101560.94
2023-02-13T00:22:19.673Z,101555.73
2023-02-13T00:23:23.387Z,101550.53
2023-02-13T00:24:26.055Z,101554.87
2023-02-13T00:25:29.378Z,101545.31
2023-02-13T00:26:33.682Z,101545.31
2023-02-13T00:27:37.117Z,101546.19
2023-02-13T00:28:41.339Z,101547.92
2023-02-13T00:29:44.725Z,101548.78
2023-02-13T00:30:47.562Z,101542.64
2023-02-13T00:31:51.285Z,101551.36
2023-02-13T00:32:54.613Z,101544.41
2023-02-13T00:33:58.743Z,101541.80
2023-02-13T00:35:02.882Z,101548.76
2023-02-13T00:36:10.901Z,101544.38
2023-02-13T00:37:14.276Z,101546.95
2023-02-13T00:38:16.628Z,101538.30
2023-02-13T00:39:22.259Z,101542.61
2023-02-13T00:40:26.247Z,101548.70
2023-02-13T00:41:29.128Z,101542.66
2023-02-13T00:42:32.111Z,101542.67
2023-02-13T00:43:35.719Z,101540.92
2023-02-13T00:44:40.031Z,101546.95
2023-02-13T00:45:43.375Z,101540.00
2023-02-13T00:46:45.848Z,101540.84
2023-02-13T00:47:48.731Z,101546.92
2023-02-13T00:48:52.984Z,101545.11
2023-02-13T00:49:58.215Z,101533.84
2023-02-13T00:51:02.123Z,101538.15
2023-02-13T00:52:05.948Z,101540.77
2023-02-13T00:53:09.353Z,101532.98
2023-02-13T00:54:12.258Z,101539.09
2023-02-13T00:55:15.629Z,101536.44
2023-02-13T00:56:19.657Z,101528.61
2023-02-13T00:57:23.453Z,101524.30
2023-02-13T00:58:27.815Z,101526.91
2023-02-13T00:59:30.269Z,101526.93
2023-02-13T01:00:33.677Z,101524.26
2023-02-13T01:01:37.336Z,101528.63
2023-02-13T01:02:40.999Z,101525.16
2023-02-13T01:03:46.606Z,101523.44
2023-02-13T01:04:50.092Z,101521.69
2023-02-13T01:05:56.321Z,101518.23
2023-02-13T01:07:00.367Z,101516.50
2023-02-13T01:08:05.004Z,101513.89
2023-02-13T01:09:11.986Z,101519.10
2023-02-13T01:10:15.437Z,101515.60
2023-02-13T01:11:21.702Z,101506.92
2023-02-13T01:12:25.956Z,101510.39
2023-02-13T01:13:29.334Z,101504.30
2023-02-13T01:14:33.136Z,101508.59
2023-02-13T01:15:35.316Z,101508.59
2023-02-13T01:16:38.505Z,101500.72
2023-02-13T01:17:42.001Z,101502.38
2023-02-13T01:18:46.057Z,101503.22
2023-02-13T01:19:49.711Z,101504.94
2023-02-13T01:20:58.232Z,101498.83
2023-02-13T01:22:04.607Z,101509.21
2023-02-13T01:23:08.587Z,101510.95
2023-02-13T01:24:12.333Z,101515.27
2023-02-13T01:25:15.605Z,101510.10
2023-02-13T01:26:19.841Z,101510.11
2023-02-13T01:27:23.032Z,101503.98
2023-02-13T01:28:28.585Z,101494.50
2023-02-13T01:29:32.938Z,101499.70
2023-02-13T01:30:43.441Z,101504.87
2023-02-13T01:31:49.697Z,101505.73
2023-02-13T01:32:52.777Z,101502.26
2023-02-13T01:33:59.618Z,101505.75
2023-02-13T01:35:03.027Z,101496.22
2023-02-13T01:36:09.249Z,101496.19
2023-02-13T01:37:13.898Z,101498.84
2023-02-13T01:38:18.570Z,101497.97
2023-02-13T01:39:20.848Z,101500.56
2023-02-13T01:40:24.304Z,101491.03
2023-02-13T01:41:28.021Z,101488.45
2023-02-13T01:42:32.538Z,101490.20
2023-02-13T01:43:46.463Z,101488.45
2023-02-13T01:44:53.788Z,101487.61
2023-02-13T01:45:58.846Z,101495.43
2023-02-13T01:47:02.394Z,101488.48
2023-02-13T01:48:09.409Z,101492.85
2023-02-13T01:49:14.812Z,101486.80
2023-02-13T01:50:29.055Z,101488.56
2023-02-13T01:51:35.195Z,101485.97
2023-02-13T01:52:39.814Z,101485.11
2023-02-13T01:53:46.386Z,101490.34
2023-02-13T01:54:48.722Z,101487.77
2023-02-13T01:55:54.949Z,101486.03
2023-02-13T01:57:00.329Z,101492.09
2023-02-13T01:58:08.325Z,101497.27
2023-02-13T01:59:13.710Z,101493.83
2023-02-13T02:00:21.609Z,101492.95
2023-02-13T02:01:28.171Z,101495.58
2023-02-13T02:02:36.824Z,101483.41
2023-02-13T02:03:42.030Z,101491.24
2023-02-13T02:04:46.788Z,101485.16
2023-02-13T02:05:55.731Z,101477.34
2023-02-13T02:07:01.224Z,101477.36
2023-02-13T02:08:10.803Z,101468.70
2023-02-13T02:09:17.510Z,101468.73
2023-02-13T02:10:23.729Z,101468.73
2023-02-13T02:11:31.450Z,101473.95
2023-02-13T02:12:36.610Z,101476.54
2023-02-13T02:13:41.528Z,101470.48
2023-02-13T02:14:49.574Z,101470.50
2023-02-13T02:15:53.956Z,101467.02
2023-02-13T02:16:59.174Z,101468.77
2023-02-13T02:18:02.199Z,101467.00
2023-02-13T02:19:07.256Z,101467.86
2023-02-13T02:20:24.860Z,101471.36
2023-02-13T02:21:49.704Z,101473.11
2023-02-13T02:23:10.729Z,101469.59
2023-02-13T02:24:34.063Z,101464.37
2023-02-13T02:25:55.014Z,101471.31
2023-02-13T02:27:11.170Z,101464.37
2023-02-13T02:28:15.874Z,101472.19
2023-02-13T02:29:21.208Z,101465.26
2023-02-13T02:30:28.081Z,101469.61
2023-02-13T02:31:39.857Z,101468.76
2023-02-13T02:32:53.766Z,101473.11
2023-02-13T02:34:01.749Z,101471.40
2023-02-13T02:35:11.725Z,101474.86
2023-02-13T02:36:16.638Z,101466.20
2023-02-13T02:37:26.095Z,101463.59
2023-02-13T02:38:44.654Z,101471.41
2023-02-13T02:39:50.721Z,101471.45
2023-02-13T02:41:08.013Z,101471.42
2023-02-13T02:42:16.949Z,101474.05
2023-02-13T02:43:39.830Z,101478.39
2023-02-13T02:44:45.930Z,101476.64
2023-02-13T02:45:54.415Z,101477.52
2023-02-13T02:47:38.535Z,101471.44
2023-02-13T02:49:02.840Z,101464.48
2023-02-13T02:50:16.071Z,101464.49
2023-02-13T02:51:24.279Z,101472.28
2023-02-13T02:52:33.040Z,101468.84
2023-02-13T02:53:42.340Z,101472.25
2023-02-13T02:55:07.189Z,101467.95
2023-02-13T02:56:17.656Z,101463.61
2023-02-13T02:57:22.828Z,101463.63
2023-02-13T02:58:51.087Z,101462.74
2023-02-13T03:00:13.811Z,101474.03
2023-02-13T03:01:36.743Z,101465.34
2023-02-13T03:02:58.412Z,101471.42
2023-02-13T03:04:20.175Z,101467.96
2023-02-13T03:05:45.751Z,101467.96
2023-02-13T03:06:51.348Z,101460.14
2023-02-13T03:07:54.327Z,101459.29
2023-02-13T03:09:17.254Z,101461.00
2023-02-13T03:10:44.683Z,101461.88
2023-02-13T03:12:09.636Z,101454.95
2023-02-13T03:13:25.010Z,101450.58
2023-02-13T03:14:28.817Z,101458.41
2023-02-13T03:15:31.595Z,101443.64
2023-02-13T03:16:54.745Z,101443.64
2023-02-13T03:18:17.262Z,101446.27
2023-02-13T03:19:42.592Z,101445.38
2023-02-13T03:21:09.391Z,101447.98
2023-02-13T03:22:20.631Z,101447.11
2023-02-13T03:23:33.000Z,101446.27
2023-02-13T03:24:54.268Z,101441.05
2023-02-13T03:26:15.200Z,101442.75
2023-02-13T03:27:24.573Z,101439.30
2023-02-13T03:28:48.549Z,101442.77
2023-02-13T03:30:09.375Z,101445.33
2023-02-13T03:31:27.238Z,101445.34
2023-02-13T03:32:34.774Z,101443.63
2023-02-13T03:33:56.881Z,101425.41
2023-02-13T03:35:20.248Z,101436.70
2023-02-13T03:36:47.140Z,101439.29
2023-02-13T03:37:54.708Z,101427.16
2023-02-13T03:38:59.391Z,101424.52
2023-02-13T03:40:10.786Z,101427.98
2023-02-13T03:41:22.461Z,101421.91
2023-02-13T03:42:29.195Z,101431.45
2023-02-13T03:43:35.216Z,101428.88
2023-02-13T03:44:40.906Z,101427.97
2023-02-13T03:45:55.724Z,101421.89
2023-02-13T03:47:01.913Z,101427.96
2023-02-13T03:48:09.297Z,101419.30
2023-02-13T03:49:32.736Z,101419.31
2023-02-13T03:50:38.670Z,101419.31
2023-02-13T03:51:43.190Z,101419.30
2023-02-13T03:53:04.559Z,101417.55
2023-02-13T03:54:10.056Z,101411.48
2023-02-13T03:55:32.877Z,101410.61
2023-02-13T03:56:58.166Z,101413.22
2023-02-13T03:58:20.844Z,101404.58
2023-02-13T03:59:26.339Z,101401.95
2023-02-13T04:00:34.866Z,101405.44
2023-02-13T04:01:40.595Z,101411.50
2023-02-13T04:02:45.937Z,101398.47
2023-02-13T04:03:50.639Z,101397.61
2023-02-13T04:04:55.863Z,101396.73
2023-02-13T04:06:00.726Z,101400.18
2023-02-13T04:07:06.493Z,101391.52
2023-02-13T04:08:10.139Z,101390.66
2023-02-13T04:09:13.435Z,101388.07
2023-02-13T04:10:18.867Z,101387.18
2023-02-13T04:11:42.932Z,101386.30
2023-02-13T04:13:03.118Z,101380.24
2023-02-13T04:14:09.756Z,101381.12
2023-02-13T04:15:17.748Z,101382.85
2023-02-13T04:16:34.795Z,101379.38
2023-02-13T04:17:42.576Z,101379.38
2023-02-13T04:18:46.048Z,101381.98
2023-02-13T04:19:49.520Z,101375.91
2023-02-13T04:20:52.451Z,101385.42
2023-02-13T04:21:57.250Z,101378.45
2023-02-13T04:23:05.577Z,101377.58
2023-02-13T04:24:08.660Z,101375.87
2023-02-13T04:25:14.394Z,101380.22
2023-02-13T04:26:22.456Z,101375.87
2023-02-13T04:27:27.631Z,101372.44
2023-02-13T04:28:31.706Z,101381.01
2023-02-13T04:29:34.955Z,101372.37
2023-02-13T04:30:40.016Z,101370.65
2023-02-13T04:31:42.520Z,101374.12
2023-02-13T04:32:46.111Z,101374.13
2023-02-13T04:33:52.267Z,101375.01
2023-02-13T04:34:55.628Z,101381.95
2023-02-13T04:35:59.051Z,101379.34
2023-02-13T04:37:01.890Z,101378.50
2023-02-13T04:38:04.991Z,101374.16
2023-02-13T04:39:08.301Z,101369.78
2023-02-13T04:40:14.302Z,101368.08
2023-02-13T04:41:17.475Z,101371.55
2023-02-13T04:42:21.310Z,101364.58
2023-02-13T04:43:25.869Z,101372.37
2023-02-13T04:44:30.440Z,101368.09
2023-02-13T04:45:33.914Z,101375.86
2023-02-13T04:46:36.172Z,101364.63
2023-02-13T04:47:39.666Z,101370.72
2023-02-13T04:48:42.866Z,101365.48
2023-02-13T04:49:45.426Z,101365.48
2023-02-13T04:50:48.712Z,101358.52
2023-02-13T04:51:51.905Z,101363.77
2023-02-13T04:53:01.408Z,101362.02
2023-02-13T04:54:06.733Z,101369.86
2023-02-13T04:55:11.099Z,101368.98
2023-02-13T04:56:14.223Z,101371.59
2023-02-13T04:57:17.054Z,101369.87
2023-02-13T04:58:22.426Z,101362.93
2023-02-13T04:59:25.437Z,101366.41
2023-02-13T05:00:30.928Z,101366.39
2023-02-13T05:01:33.210Z,101371.61
2023-02-13T05:02:37.005Z,101373.34
2023-02-13T05:03:41.141Z,101374.22
2023-02-13T05:04:44.791Z,101373.33
2023-02-13T05:05:47.913Z,101369.86
2023-02-13T05:06:51.328Z,101366.36
2023-02-13T05:07:55.144Z,101370.70
2023-02-13T05:08:58.886Z,101372.45
2023-02-13T05:10:03.350Z,101372.45
2023-02-13T05:11:07.125Z,101365.46
2023-02-13T05:12:11.673Z,101364.55
2023-02-13T05:13:17.986Z,101369.77
2023-02-13T05:14:22.638Z,101373.25
2023-02-13T05:15:28.758Z,101375.85
2023-02-13T05:16:31.748Z,101372.37
2023-02-13T05:17:34.985Z,101375.85
2023-02-13T05:18:39.376Z,101369.77
2023-02-13T05:19:41.732Z,101362.81
2023-02-13T05:20:44.516Z,101370.64
2023-02-13T05:22:06.392Z,101370.59
2023-02-13T05:23:23.580Z,101360.16
2023-02-13T05:24:26.555Z,101361.89
2023-02-13T05:25:29.974Z,101367.01
2023-02-13T05:26:32.317Z,101363.57
2023-02-13T05:27:36.147Z,101367.05
2023-02-13T05:28:58.975Z,101354.88
2023-02-13T05:30:02.192Z,101367.05
2023-02-13T05:31:05.847Z,101370.47
2023-02-13T05:32:08.950Z,101368.68
2023-02-13T05:33:13.648Z,101364.33
2023-02-13T05:34:18.837Z,101360.80
2023-02-13T05:35:23.864Z,101368.64
2023-02-13T05:36:27.376Z,101362.56
2023-02-13T05:37:30.590Z,101364.23
2023-02-13T05:38:34.490Z,101358.10
2023-02-13T05:39:37.892Z,101363.35
2023-02-13T05:40:40.550Z,101367.70
2023-02-13T05:41:45.544Z,101366.81
2023-02-13T05:42:49.262Z,101365.06
2023-02-13T05:43:53.898Z,101368.50
2023-02-13T05:44:57.193Z,101358.06
2023-02-13T05:46:04.594Z,101364.14
2023-02-13T05:47:08.067Z,101356.30
2023-02-13T05:49:15.288Z,101358.02
2023-02-13T05:50:18.886Z,101351.86
2023-02-13T05:51:22.197Z,101355.33
2023-02-13T05:52:24.539Z,101355.30
2023-02-13T05:53:27.425Z,101348.25
2023-02-13T05:54:30.827Z,101356.09
2023-02-13T05:55:32.964Z,101351.73
2023-02-13T05:56:36.486Z,101347.44
2023-02-13T05:57:39.981Z,101343.11
2023-02-13T05:58:43.695Z,101351.72
2023-02-13T05:59:48.745Z,101350.88
2023-02-13T06:00:53.211Z,101354.31
2023-02-13T06:01:58.868Z,101355.94
2023-02-13T06:03:02.085Z,101347.99
2023-02-13T06:04:05.670Z,101354.21
2023-02-13T06:05:09.025Z,101350.73
2023-02-13T06:06:11.454Z,101353.30
2023-02-13T06:07:14.977Z,101351.50
2023-02-13T06:08:19.004Z,101355.95
2023-02-13T06:09:22.817Z,101352.60
2023-02-13T06:10:27.469Z,101342.90
2023-02-13T06:11:30.724Z,101342.92
2023-02-13T06:12:37.288Z,101342.08
2023-02-13T06:13:41.743Z,101347.45
2023-02-13T06:14:45.144Z,101349.95
2023-02-13T06:15:47.740Z,101336.92
2023-02-13T06:16:50.486Z,101346.56
2023-02-13T06:17:53.533Z,101342.11
2023-02-13T06:18:57.107Z,101335.04
2023-02-13T06:20:01.113Z,101334.19
2023-02-13T06:21:04.344Z,101334.30
2023-02-13T06:22:07.572Z,101336.66
2023-02-13T06:23:10.863Z,101330.89
2023-02-13T06:24:13.660Z,101326.31
2023-02-13T06:25:16.215Z,101335.89
2023-02-13T06:26:19.579Z,101335.73
2023-02-13T06:27:23.716Z,101338.97
2023-02-13T06:28:27.878Z,101327.56
2023-02-13T06:29:33.901Z,101336.27
2023-02-13T06:30:36.515Z,101323.92
2023-02-13T06:31:39.967Z,101325.64
2023-02-13T06:32:43.569Z,101325.55
2023-02-13T06:33:46.980Z,101324.70
2023-02-13T06:34:50.123Z,101329.03
2023-02-13T06:35:56.532Z,101328.09
2023-02-13T06:36:59.677Z,101327.12
2023-02-13T06:38:02.338Z,101334.77
2023-02-13T06:39:05.733Z,101322.52
2023-02-13T06:40:09.360Z,101319.94
2023-02-13T06:41:12.783Z,101317.23
2023-02-13T06:42:15.557Z,101318.33
2023-02-13T06:43:19.679Z,101325.20
2023-02-13T06:44:22.996Z,101318.95
2023-02-13T06:45:26.674Z,101320.67
2023-02-13T06:46:29.983Z,101311.20
2023-02-13T06:47:33.277Z,101313.63
2023-02-13T06:48:36.471Z,101315.90
2023-02-13T06:49:39.977Z,101313.07
2023-02-13T06:50:42.331Z,101315.58
2023-02-13T06:51:45.731Z,101308.41
2023-02-13T06:52:49.344Z,101308.91
2023-02-13T06:53:52.748Z,101313.05
2023-02-13T06:54:56.558Z,101306.33
2023-02-13T06:56:01.005Z,101310.41
2023-02-13T06:57:03.766Z,101313.65
2023-02-13T06:58:08.292Z,101311.66
2023-02-13T06:59:10.987Z,101306.25
2023-02-13T07:00:15.688Z,101305.16
2023-02-13T07:01:19.120Z,101306.08
2023-02-13T07:02:22.568Z,101293.05
2023-02-13T07:03:25.736Z,101299.69
2023-02-13T07:04:29.510Z,101291.59
2023-02-13T07:05:33.386Z,101299.77
2023-02-13T07:06:36.567Z,101299.52
2023-02-13T07:07:42.657Z,101301.48
2023-02-13T07:08:45.907Z,101296.70
2023-02-13T07:09:49.276Z,101298.45
2023-02-13T07:10:52.598Z,101294.34
2023-02-13T07:11:57.234Z,101295.18
2023-02-13T07:13:06.005Z,101291.67
2023-02-13T07:15:23.625Z,101286.72
2023-02-13T07:16:26.908Z,101286.69
2023-02-13T07:17:30.625Z,101282.83
2023-02-13T07:18:33.298Z,101277.30
2023-02-13T07:19:38.501Z,101275.71
2023-02-13T07:20:41.634Z,101270.86
2023-02-13T07:21:44.342Z,101276.30
2023-02-13T07:22:47.848Z,101273.42
2023-02-13T07:23:54.469Z,101276.50
2023-02-13T07:24:58.722Z,101274.41
2023-02-13T07:26:02.839Z,101281.27
2023-02-13T07:27:07.403Z,101273.23
2023-02-13T07:28:10.473Z,101269.03
2023-02-13T07:29:13.895Z,101267.42
2023-02-13T07:30:18.412Z,101267.45
2023-02-13T07:31:22.539Z,101269.27
2023-02-13T07:32:27.400Z,101261.56
2023-02-13T07:33:30.944Z,101271.50
2023-02-13T07:34:35.633Z,101269.03
2023-02-13T07:35:39.763Z,101267.69
2023-02-13T07:36:43.153Z,101266.66
2023-02-13T07:37:45.558Z,101260.23
2023-02-13T07:38:48.885Z,101262.32
2023-02-13T07:39:52.493Z,101261.63
2023-02-13T07:40:58.216Z,101265.46
2023-02-13T07:42:00.836Z,101261.70
2023-02-13T07:43:04.167Z,101267.58
2023-02-13T07:44:06.828Z,101259.41
2023-02-13T07:45:10.293Z,101259.41
2023-02-13T07:46:13.733Z,101267.55
2023-02-13T07:47:19.002Z,101259.41
2023-02-13T07:48:23.354Z,101267.33
2023-02-13T07:49:26.870Z,101264.91
2023-02-13T07:50:30.460Z,101256.95
2023-02-13T07:51:35.126Z,101267.92
2023-02-13T07:52:38.951Z,101259.00
2023-02-13T07:53:45.186Z,101263.53
2023-02-13T07:54:51.154Z,101269.55
2023-02-13T07:55:54.404Z,101270.75
2023-02-13T07:56:59.893Z,101258.79
2023-02-13T07:58:06.521Z,101261.48
2023-02-13T07:59:11.578Z,101260.98
2023-02-13T08:00:15.801Z,101268.52
2023-02-13T08:01:21.423Z,101262.80
2023-02-13T08:02:23.962Z,101261.03
2023-02-13T08:03:26.355Z,101252.63
2023-02-13T08:04:30.136Z,101256.20
2023-02-13T08:05:34.237Z,101251.36
2023-02-13T08:06:39.345Z,101257.14
2023-02-13T08:07:42.631Z,101249.47
2023-02-13T08:08:48.336Z,101248.34
2023-02-13T08:10:10.442Z,101248.75
2023-02-13T08:11:34.969Z,101242.70
2023-02-13T08:12:38.737Z,101231.84
2023-02-13T08:13:41.509Z,101232.82
2023-02-13T08:14:44.530Z,101227.09
2023-02-13T08:15:47.072Z,101229.44
2023-02-13T08:16:50.824Z,101226.37
2023-02-13T08:17:55.430Z,101221.95
2023-02-13T08:18:58.946Z,101219.92
2023-02-13T08:20:02.654Z,101219.70
2023-02-13T08:21:06.076Z,101221.98
2023-02-13T08:22:08.840Z,101213.63
2023-02-13T08:23:12.920Z,101220.95
2023-02-13T08:24:16.560Z,101213.37
2023-02-13T08:25:23.331Z,101216.45
2023-02-13T08:26:26.980Z,101216.51
2023-02-13T08:27:30.369Z,101216.72
2023-02-13T08:28:33.887Z,101205.20
2023-02-13T08:29:37.432Z,101206.55
2023-02-13T08:30:40.305Z,101200.65
2023-02-13T08:31:45.016Z,101203.36
2023-02-13T08:32:54.243Z,101203.88
2023-02-13T08:33:53.322Z,101202.13
2023-02-13T08:34:56.783Z,101207.34
2023-02-13T08:36:03.590Z,101209.84
2023-02-13T08:37:07.096Z,101227.31
2023-02-13T08:38:10.589Z,101234.22
2023-02-13T08:39:14.097Z,101241.45
2023-02-13T08:40:18.578Z,101236.75
2023-02-13T08:41:30.639Z,101232.95
2023-02-13T08:42:33.791Z,101227.56
2023-02-13T08:43:37.925Z,101228.62
2023-02-13T08:44:42.055Z,101221.30
2023-02-13T08:45:45.674Z,101226.31
2023-02-13T08:46:49.182Z,101227.14
2023-02-13T08:47:54.137Z,101227.94
2023-02-13T08:49:00.098Z,101227.24
2023-02-13T08:50:03.350Z,101229.24
2023-02-13T08:51:09.966Z,101229.38
2023-02-13T08:52:13.286Z,101222.28
2023-02-13T08:53:16.468Z,101226.75
2023-02-13T08:54:21.568Z,101217.61
2023-02-13T08:55:24.954Z,101218.39
2023-02-13T08:56:28.270Z,101219.64
2023-02-13T08:57:30.915Z,101214.34
2023-02-13T08:58:35.497Z,101216.85
2023-02-13T08:59:39.177Z,101226.19
2023-02-13T09:00:43.934Z,101222.95
2023-02-13T09:01:46.385Z,101223.75
2023-02-13T09:02:51.486Z,101219.28
2023-02-13T09:03:55.677Z,101223.02
2023-02-13T09:05:01.845Z,101209.52
2023-02-13T09:06:05.484Z,101212.97
2023-02-13T09:07:11.138Z,101213.38
2023-02-13T09:08:14.619Z,101212.56
2023-02-13T09:09:17.919Z,101210.70
2023-02-13T09:10:20.704Z,101215.25
2023-02-13T09:11:25.011Z,101206.44
2023-02-13T09:12:28.380Z,101208.17
2023-02-13T09:13:35.046Z,101198.88
2023-02-13T09:14:40.805Z,101197.03
2023-02-13T09:15:47.211Z,101197.70
2023-02-13T09:16:49.576Z,101194.23
2023-02-13T09:17:53.597Z,101203.44
2023-02-13T09:18:56.903Z,101189.84
2023-02-13T09:20:00.293Z,101194.83
2023-02-13T09:21:05.356Z,101194.76
2023-02-13T09:22:08.665Z,101193.74
2023-02-13T09:23:12.055Z,101189.56
2023-02-13T09:24:15.047Z,101182.95
2023-02-13T09:25:23.603Z,101186.56
2023-02-13T09:26:26.965Z,101182.09
2023-02-13T09:27:31.410Z,101179.08
2023-02-13T09:28:34.701Z,101174.77
2023-02-13T09:29:40.859Z,101178.75
2023-02-13T09:30:44.026Z,101171.78
2023-02-13T09:31:50.893Z,101166.05
2023-02-13T09:32:56.248Z,101161.55
2023-02-13T09:33:59.428Z,101163.82
2023-02-13T09:35:01.600Z,101156.60
2023-02-13T09:36:08.960Z,101160.86
2023-02-13T09:37:12.274Z,101163.82
2023-02-13T09:39:43.808Z,101154.67
2023-02-13T09:40:52.737Z,101151.52
2023-02-13T09:41:57.295Z,101151.89
2023-02-13T09:43:01.754Z,101154.74
2023-02-13T09:44:14.107Z,101148.95
2023-02-13T09:45:18.684Z,101140.88
2023-02-13T09:46:30.153Z,101143.41
2023-02-13T09:47:45.835Z,101150.53
2023-02-13T09:48:52.063Z,101137.70
2023-02-13T09:49:56.508Z,101129.49
2023-02-13T09:51:00.235Z,101133.34
2023-02-13T09:52:05.713Z,101131.83
2023-02-13T09:53:10.990Z,101137.30
2023-02-13T09:54:15.680Z,101134.52
2023-02-13T09:55:20.510Z,101131.11
2023-02-13T09:56:45.729Z,101123.73
2023-02-13T09:58:08.771Z,101126.71
2023-02-13T09:59:26.064Z,101127.30
2023-02-13T10:00:33.225Z,101126.36
2023-02-13T10:01:41.880Z,101125.88
2023-02-13T10:03:01.969Z,101125.02
2023-02-13T10:04:16.528Z,101118.43
2023-02-13T10:05:26.338Z,101122.48
2023-02-13T10:06:35.592Z,101118.83
2023-02-13T10:07:41.674Z,101118.09
2023-02-13T10:08:52.317Z,101119.17
2023-02-13T10:09:59.649Z,101116.78
2023-02-13T10:11:10.469Z,101109.55
2023-02-13T10:12:15.826Z,101112.00
2023-02-13T10:13:37.139Z,101115.50
2023-02-13T10:14:41.652Z,101111.65
2023-02-13T10:16:04.236Z,101098.77
2023-02-13T10:17:11.660Z,101101.05
2023-02-13T10:18:20.073Z,101105.28
2023-02-13T10:19:29.068Z,101101.48
2023-02-13T10:20:38.973Z,101105.78
2023-02-13T10:21:47.074Z,101103.75
2023-02-13T10:22:51.896Z,101094.31
2023-02-13T10:23:57.084Z,101094.73
2023-02-13T10:25:05.542Z,101093.18
2023-02-13T10:26:10.716Z,101087.91
2023-02-13T10:27:14.738Z,101091.06
2023-02-13T10:28:19.331Z,101087.14
2023-02-13T10:29:45.983Z,101090.30
2023-02-13T10:30:52.220Z,101095.73
2023-02-13T10:31:56.162Z,101088.87
2023-02-13T10:33:20.738Z,101088.77
2023-02-13T10:34:26.010Z,101092.23
2023-02-13T10:35:31.716Z,101096.79
2023-02-13T10:36:39.809Z,101099.47
2023-02-13T10:37:43.629Z,101091.39
2023-02-13T10:38:49.123Z,101093.38
2023-02-13T10:39:55.540Z,101099.92
2023-02-13T10:41:02.728Z,101098.84
2023-02-13T10:42:23.942Z,101097.66
2023-02-13T10:43:29.455Z,101096.42
2023-02-13T10:44:43.032Z,101090.89
2023-02-13T10:46:03.243Z,101093.98
2023-02-13T10:47:20.283Z,101086.53
2023-02-13T10:48:26.113Z,101093.05
2023-02-13T10:49:40.466Z,101086.88
2023-02-13T10:50:57.400Z,101089.09
2023-02-13T10:52:01.579Z,101086.62
2023-02-13T10:53:07.898Z,101090.16
2023-02-13T10:54:15.606Z,101084.71
2023-02-13T10:55:20.679Z,101081.07
2023-02-13T10:56:37.433Z,101078.48
2023-02-13T10:57:43.528Z,101079.95
2023-02-13T10:58:49.057Z,101081.08
2023-02-13T10:59:54.620Z,101071.13
2023-02-13T11:00:59.050Z,101073.86
2023-02-13T11:02:16.460Z,101079.49
2023-02-13T11:03:21.636Z,101074.94
2023-02-13T11:04:25.616Z,101072.50
2023-02-13T11:05:33.572Z,101069.44
2023-02-13T11:06:38.630Z,101073.11
2023-02-13T11:07:41.910Z,101064.36
2023-02-13T11:08:46.879Z,101073.46
2023-02-13T11:09:52.918Z,101077.52
2023-02-13T11:10:59.351Z,101067.87
2023-02-13T11:12:05.552Z,101075.23
2023-02-13T11:14:27.704Z,101069.05
2023-02-13T11:15:31.337Z,101066.86
2023-02-13T11:16:49.251Z,101072.23
2023-02-13T11:17:53.912Z,101077.24
2023-02-13T11:18:57.485Z,101069.61
2023-02-13T11:20:02.004Z,101067.91
2023-02-13T11:21:09.415Z,101070.77
2023-02-13T11:22:13.652Z,101067.63
2023-02-13T11:23:27.721Z,101067.64
2023-02-13T11:24:32.044Z,101063.31
2023-02-13T11:25:35.437Z,101068.03
2023-02-13T11:26:45.085Z,101073.41
2023-02-13T11:27:47.766Z,101072.08
2023-02-13T11:28:53.379Z,101072.83
2023-02-13T11:29:58.552Z,101060.52
2023-02-13T11:31:14.969Z,101062.59
2023-02-13T11:32:19.688Z,101062.69
2023-02-13T11:33:25.358Z,101060.91
2023-02-13T11:34:30.431Z,101068.91
2023-02-13T11:35:36.342Z,101053.80
2023-02-13T11:36:39.528Z,101050.16
2023-02-13T11:37:43.665Z,101049.06
2023-02-13T11:38:50.066Z,101054.09
2023-02-13T11:39:55.065Z,101045.09
2023-02-13T11:41:07.319Z,101051.52
2023-02-13T11:42:19.132Z,101047.27
2023-02-13T11:43:27.093Z,101038.00
2023-02-13T11:44:31.963Z,101041.98
2023-02-13T11:45:34.508Z,101043.83
2023-02-13T11:46:45.934Z,101039.73
2023-02-13T11:47:53.645Z,101041.14
2023-02-13T11:48:58.611Z,101036.53
2023-02-13T11:50:02.771Z,101032.58
2023-02-13T11:51:05.309Z,101031.70
2023-02-13T11:52:10.594Z,101027.23
2023-02-13T11:53:18.378Z,101027.99
2023-02-13T11:54:38.940Z,101025.41
2023-02-13T11:55:46.004Z,101023.25
2023-02-13T11:57:04.108Z,101027.23
2023-02-13T11:58:00.703Z,101026.84
2023-02-13T11:59:05.002Z,101019.91
2023-02-13T12:00:29.022Z,101027.28
2023-02-13T12:01:32.945Z,101017.20
2023-02-13T12:02:47.715Z,101019.75
2023-02-13T12:04:08.681Z,101008.73
2023-02-13T12:05:17.095Z,100997.61
2023-02-13T12:06:22.762Z,100997.59
2023-02-13T12:07:26.610Z,100999.47
2023-02-13T12:08:30.856Z,100990.23
2023-02-13T12:09:35.491Z,100991.52
2023-02-13T12:10:40.858Z,100989.74
2023-02-13T12:11:48.386Z,100988.14
2023-02-13T12:12:55.406Z,100979.22
2023-02-13T12:14:01.736Z,100988.20
2023-02-13T12:15:06.491Z,100979.94
2023-02-13T12:16:15.630Z,100985.63
2023-02-13T12:17:31.178Z,100981.66
2023-02-13T12:18:30.700Z,100980.45
2023-02-13T12:19:44.963Z,100981.02
2023-02-13T12:20:55.765Z,100973.36
2023-02-13T12:22:01.581Z,100974.56
2023-02-13T12:23:05.705Z,100976.63
2023-02-13T12:24:16.312Z,100980.98
2023-02-13T12:25:27.978Z,100975.25
2023-02-13T12:26:45.675Z,100967.55
2023-02-13T12:27:49.809Z,100977.66
2023-02-13T12:28:54.045Z,100974.61
2023-02-13T12:30:07.378Z,100968.14
2023-02-13T12:31:16.573Z,100971.39
2023-02-13T12:32:30.885Z,100965.31
2023-02-13T12:33:37.932Z,100963.14
2023-02-13T12:34:44.271Z,100967.16
2023-02-13T12:35:55.398Z,100965.68
2023-02-13T12:37:07.762Z,100961.84
2023-02-13T12:38:25.215Z,100958.41
2023-02-13T12:39:30.584Z,100960.33
2023-02-13T12:40:47.956Z,100961.90
2023-02-13T12:41:54.128Z,100956.33
2023-02-13T12:43:05.309Z,100954.51
2023-02-13T12:44:11.521Z,100954.91
2023-02-13T12:45:21.812Z,100952.48
2023-02-13T12:46:27.113Z,100955.87
2023-02-13T12:47:32.207Z,100953.08